sensor_id;sensor_type;location;lat;lon;timestamp;P1;durP1;ratioP1;P2;durP2;ratioP2
41532;SDS011;27262;-35.248;149.138;2024-02-15T00:00:56;2.20;;;0.60;;
41532;SDS011;27262;-35.248;149.138;2024-02-15T00:03:28;1.95;;;0.45;;
41532;SDS011;27262;-35.248;149.138;2024-02-15T00:06:00;2.75;;;0.50;;
41532;SDS011;27262;-35.248;149.138;2024-02-15T00:08:30;2.13;;;0.60;;
41532;SDS011;27262;-35.248;149.138;2024-02-15T00:11:01;3.05;;;0.50;;
41532;SDS011;27262;-35.248;149.138;2024-02-15T00:13:31;0.98;;;0.57;;
41532;SDS011;27262;-35.248;149.138;2024-02-15T00:16:02;1.08;;;0.73;;
41532;SDS011;27262;-35.248;149.138;2024-02-15T00:18:32;6.25;;;0.60;;
41532;SDS011;27262;-35.248;149.138;2024-02-15T00:21:03;2.97;;;0.50;;
41532;SDS011;27262;-35.248;149.138;2024-02-15T00:23:34;1.83;;;0.50;;
41532;SDS011;27262;-35.248;149.138;2024-02-15T00:26:04;1.38;;;0.50;;
41532;SDS011;27262;-35.248;149.138;2024-02-15T00:28:34;2.63;;;0.75;;
41532;SDS011;27262;-35.248;149.138;2024-02-15T00:31:04;6.10;;;0.82;;
41532;SDS011;27262;-35.248;149.138;2024-02-15T00:33:36;3.65;;;0.80;;
41532;SDS011;27262;-35.248;149.138;2024-02-15T00:36:07;3.33;;;0.68;;
41532;SDS011;27262;-35.248;149.138;2024-02-15T00:38:39;3.40;;;0.70;;
41532;SDS011;27262;-35.248;149.138;2024-02-15T00:41:11;3.05;;;0.40;;
41532;SDS011;27262;-35.248;149.138;2024-02-15T00:43:42;1.63;;;0.70;;
41532;SDS011;27262;-35.248;149.138;2024-02-15T00:46:12;2.05;;;0.38;;
41532;SDS011;27262;-35.248;149.138;2024-02-15T00:48:43;2.83;;;0.70;;
41532;SDS011;27262;-35.248;149.138;2024-02-15T00:51:14;2.35;;;0.65;;
41532;SDS011;27262;-35.248;149.138;2024-02-15T00:53:44;3.35;;;0.65;;
41532;SDS011;27262;-35.248;149.138;2024-02-15T00:56:15;0.98;;;0.40;;
41532;SDS011;27262;-35.248;149.138;2024-02-15T00:58:46;1.13;;;0.40;;
41532;SDS011;27262;-35.248;149.138;2024-02-15T01:01:17;0.90;;;0.50;;
41532;SDS011;27262;-35.248;149.138;2024-02-15T01:03:47;4.13;;;0.50;;
41532;SDS011;27262;-35.248;149.138;2024-02-15T01:06:18;1.33;;;0.45;;
41532;SDS011;27262;-35.248;149.138;2024-02-15T01:08:48;3.33;;;0.57;;
41532;SDS011;27262;-35.248;149.138;2024-02-15T01:11:19;1.65;;;0.50;;
41532;SDS011;27262;-35.248;149.138;2024-02-15T01:13:49;7.22;;;0.68;;
41532;SDS011;27262;-35.248;149.138;2024-02-15T01:16:21;1.08;;;0.50;;
41532;SDS011;27262;-35.248;149.138;2024-02-15T01:18:53;3.45;;;0.57;;
41532;SDS011;27262;-35.248;149.138;2024-02-15T01:21:24;1.38;;;0.50;;
41532;SDS011;27262;-35.248;149.138;2024-02-15T01:23:54;2.97;;;0.73;;
41532;SDS011;27262;-35.248;149.138;2024-02-15T01:26:24;1.30;;;0.70;;
41532;SDS011;27262;-35.248;149.138;2024-02-15T01:28:55;2.13;;;0.60;;
41532;SDS011;27262;-35.248;149.138;2024-02-15T01:31:25;1.48;;;0.40;;
41532;SDS011;27262;-35.248;149.138;2024-02-15T01:33:56;1.02;;;0.40;;
41532;SDS011;27262;-35.248;149.138;2024-02-15T01:36:26;1.65;;;0.60;;
41532;SDS011;27262;-35.248;149.138;2024-02-15T01:38:56;3.00;;;0.60;;
41532;SDS011;27262;-35.248;149.138;2024-02-15T01:41:27;1.58;;;0.60;;
41532;SDS011;27262;-35.248;149.138;2024-02-15T01:43:57;1.67;;;0.43;;
41532;SDS011;27262;-35.248;149.138;2024-02-15T01:46:27;1.98;;;0.60;;
41532;SDS011;27262;-35.248;149.138;2024-02-15T01:48:58;1.02;;;0.50;;
41532;SDS011;27262;-35.248;149.138;2024-02-15T01:51:29;1.25;;;0.40;;
41532;SDS011;27262;-35.248;149.138;2024-02-15T01:54:01;1.63;;;0.60;;
41532;SDS011;27262;-35.248;149.138;2024-02-15T01:56:32;1.35;;;0.50;;
41532;SDS011;27262;-35.248;149.138;2024-02-15T01:59:02;2.55;;;0.52;;
41532;SDS011;27262;-35.248;149.138;2024-02-15T02:01:34;1.40;;;0.55;;
41532;SDS011;27262;-35.248;149.138;2024-02-15T02:04:05;1.58;;;0.50;;
41532;SDS011;27262;-35.248;149.138;2024-02-15T02:06:39;3.38;;;0.55;;
41532;SDS011;27262;-35.248;149.138;2024-02-15T02:09:13;3.95;;;0.98;;
41532;SDS011;27262;-35.248;149.138;2024-02-15T02:11:45;2.92;;;0.73;;
41532;SDS011;27262;-35.248;149.138;2024-02-15T02:14:16;6.22;;;0.73;;
41532;SDS011;27262;-35.248;149.138;2024-02-15T02:16:49;1.70;;;0.60;;
41532;SDS011;27262;-35.248;149.138;2024-02-15T02:19:20;2.10;;;0.77;;
41532;SDS011;27262;-35.248;149.138;2024-02-15T02:21:51;1.98;;;0.60;;
41532;SDS011;27262;-35.248;149.138;2024-02-15T02:24:22;3.10;;;0.70;;
41532;SDS011;27262;-35.248;149.138;2024-02-15T02:26:53;1.95;;;0.40;;
41532;SDS011;27262;-35.248;149.138;2024-02-15T02:29:24;2.90;;;0.50;;
41532;SDS011;27262;-35.248;149.138;2024-02-15T02:31:54;2.80;;;0.50;;
41532;SDS011;27262;-35.248;149.138;2024-02-15T02:34:25;0.93;;;0.60;;
41532;SDS011;27262;-35.248;149.138;2024-02-15T02:36:56;0.90;;;0.40;;
41532;SDS011;27262;-35.248;149.138;2024-02-15T02:39:26;1.92;;;0.57;;
41532;SDS011;27262;-35.248;149.138;2024-02-15T02:42:00;5.00;;;0.63;;
41532;SDS011;27262;-35.248;149.138;2024-02-15T02:44:30;5.50;;;0.80;;
41532;SDS011;27262;-35.248;149.138;2024-02-15T02:47:01;1.67;;;0.60;;
41532;SDS011;27262;-35.248;149.138;2024-02-15T02:49:31;1.23;;;0.57;;
41532;SDS011;27262;-35.248;149.138;2024-02-15T02:52:02;1.30;;;0.68;;
41532;SDS011;27262;-35.248;149.138;2024-02-15T02:54:33;2.70;;;0.60;;
41532;SDS011;27262;-35.248;149.138;2024-02-15T02:57:03;6.95;;;1.02;;
41532;SDS011;27262;-35.248;149.138;2024-02-15T02:59:34;2.45;;;0.70;;
41532;SDS011;27262;-35.248;149.138;2024-02-15T03:02:08;2.20;;;0.55;;
41532;SDS011;27262;-35.248;149.138;2024-02-15T03:04:38;3.03;;;0.52;;
41532;SDS011;27262;-35.248;149.138;2024-02-15T03:07:09;1.20;;;0.50;;
41532;SDS011;27262;-35.248;149.138;2024-02-15T03:09:45;4.25;;;0.60;;
41532;SDS011;27262;-35.248;149.138;2024-02-15T03:12:16;1.80;;;0.70;;
41532;SDS011;27262;-35.248;149.138;2024-02-15T03:14:46;1.95;;;0.93;;
41532;SDS011;27262;-35.248;149.138;2024-02-15T03:17:16;0.98;;;0.50;;
41532;SDS011;27262;-35.248;149.138;2024-02-15T03:19:47;2.72;;;0.60;;
41532;SDS011;27262;-35.248;149.138;2024-02-15T03:22:17;1.95;;;0.55;;
41532;SDS011;27262;-35.248;149.138;2024-02-15T03:24:47;1.15;;;0.40;;
41532;SDS011;27262;-35.248;149.138;2024-02-15T03:27:18;0.75;;;0.50;;
41532;SDS011;27262;-35.248;149.138;2024-02-15T03:29:51;0.73;;;0.40;;
41532;SDS011;27262;-35.248;149.138;2024-02-15T03:32:25;2.75;;;0.60;;
41532;SDS011;27262;-35.248;149.138;2024-02-15T03:34:56;1.63;;;0.75;;
41532;SDS011;27262;-35.248;149.138;2024-02-15T03:37:27;1.70;;;0.47;;
41532;SDS011;27262;-35.248;149.138;2024-02-15T03:39:57;1.67;;;0.45;;
41532;SDS011;27262;-35.248;149.138;2024-02-15T03:42:28;0.55;;;0.45;;
41532;SDS011;27262;-35.248;149.138;2024-02-15T03:44:59;1.75;;;0.60;;
41532;SDS011;27262;-35.248;149.138;2024-02-15T03:47:29;1.40;;;0.50;;
41532;SDS011;27262;-35.248;149.138;2024-02-15T03:50:01;0.73;;;0.40;;
41532;SDS011;27262;-35.248;149.138;2024-02-15T03:52:37;1.38;;;0.50;;
41532;SDS011;27262;-35.248;149.138;2024-02-15T03:55:07;1.15;;;0.55;;
41532;SDS011;27262;-35.248;149.138;2024-02-15T03:57:39;1.38;;;0.52;;
41532;SDS011;27262;-35.248;149.138;2024-02-15T04:00:12;1.23;;;0.50;;
41532;SDS011;27262;-35.248;149.138;2024-02-15T04:02:43;1.48;;;0.60;;
41532;SDS011;27262;-35.248;149.138;2024-02-15T04:05:14;0.93;;;0.55;;
41532;SDS011;27262;-35.248;149.138;2024-02-15T04:07:46;1.30;;;0.50;;
41532;SDS011;27262;-35.248;149.138;2024-02-15T04:10:16;1.58;;;0.50;;
41532;SDS011;27262;-35.248;149.138;2024-02-15T04:12:47;1.60;;;0.60;;
41532;SDS011;27262;-35.248;149.138;2024-02-15T04:15:17;1.38;;;0.45;;
41532;SDS011;27262;-35.248;149.138;2024-02-15T04:17:48;0.65;;;0.50;;
41532;SDS011;27262;-35.248;149.138;2024-02-15T04:20:24;2.55;;;0.55;;
41532;SDS011;27262;-35.248;149.138;2024-02-15T04:22:55;1.92;;;0.57;;
41532;SDS011;27262;-35.248;149.138;2024-02-15T04:25:28;2.50;;;0.70;;
41532;SDS011;27262;-35.248;149.138;2024-02-15T04:27:59;3.60;;;0.82;;
41532;SDS011;27262;-35.248;149.138;2024-02-15T04:30:32;0.52;;;0.43;;
41532;SDS011;27262;-35.248;149.138;2024-02-15T04:33:04;0.63;;;0.40;;
41532;SDS011;27262;-35.248;149.138;2024-02-15T04:35:34;1.80;;;0.63;;
41532;SDS011;27262;-35.248;149.138;2024-02-15T04:38:04;3.40;;;0.52;;
41532;SDS011;27262;-35.248;149.138;2024-02-15T04:40:38;1.45;;;0.63;;
41532;SDS011;27262;-35.248;149.138;2024-02-15T04:43:09;4.60;;;1.00;;
41532;SDS011;27262;-35.248;149.138;2024-02-15T04:45:39;3.63;;;0.70;;
41532;SDS011;27262;-35.248;149.138;2024-02-15T04:48:09;2.92;;;0.80;;
41532;SDS011;27262;-35.248;149.138;2024-02-15T04:50:42;2.15;;;0.77;;
41532;SDS011;27262;-35.248;149.138;2024-02-15T04:53:13;2.58;;;0.65;;
41532;SDS011;27262;-35.248;149.138;2024-02-15T04:55:43;2.38;;;0.68;;
41532;SDS011;27262;-35.248;149.138;2024-02-15T04:58:14;4.57;;;0.70;;
41532;SDS011;27262;-35.248;149.138;2024-02-15T05:00:44;5.25;;;0.93;;
41532;SDS011;27262;-35.248;149.138;2024-02-15T05:03:15;3.15;;;0.52;;
41532;SDS011;27262;-35.248;149.138;2024-02-15T05:05:46;2.88;;;0.70;;
41532;SDS011;27262;-35.248;149.138;2024-02-15T05:08:19;1.13;;;0.50;;
41532;SDS011;27262;-35.248;149.138;2024-02-15T05:10:49;1.13;;;0.70;;
41532;SDS011;27262;-35.248;149.138;2024-02-15T05:13:25;2.45;;;0.70;;
41532;SDS011;27262;-35.248;149.138;2024-02-15T05:15:57;2.15;;;0.57;;
41532;SDS011;27262;-35.248;149.138;2024-02-15T05:18:28;4.75;;;0.80;;
41532;SDS011;27262;-35.248;149.138;2024-02-15T05:20:59;5.65;;;1.25;;
41532;SDS011;27262;-35.248;149.138;2024-02-15T05:23:30;3.58;;;0.70;;
41532;SDS011;27262;-35.248;149.138;2024-02-15T05:26:01;5.95;;;0.65;;
41532;SDS011;27262;-35.248;149.138;2024-02-15T05:28:32;2.63;;;0.85;;
41532;SDS011;27262;-35.248;149.138;2024-02-15T05:31:18;1.20;;;0.68;;
41532;SDS011;27262;-35.248;149.138;2024-02-15T05:33:50;5.80;;;1.00;;
41532;SDS011;27262;-35.248;149.138;2024-02-15T05:36:37;4.07;;;1.00;;
41532;SDS011;27262;-35.248;149.138;2024-02-15T05:39:08;6.30;;;1.35;;
41532;SDS011;27262;-35.248;149.138;2024-02-15T05:41:40;5.75;;;1.02;;
41532;SDS011;27262;-35.248;149.138;2024-02-15T05:44:10;3.17;;;0.90;;
41532;SDS011;27262;-35.248;149.138;2024-02-15T05:46:42;10.20;;;1.45;;
41532;SDS011;27262;-35.248;149.138;2024-02-15T05:49:13;5.65;;;1.23;;
41532;SDS011;27262;-35.248;149.138;2024-02-15T05:51:46;4.43;;;0.80;;
41532;SDS011;27262;-35.248;149.138;2024-02-15T05:54:16;4.03;;;0.80;;
41532;SDS011;27262;-35.248;149.138;2024-02-15T05:56:47;3.00;;;1.10;;
41532;SDS011;27262;-35.248;149.138;2024-02-15T05:59:20;6.00;;;1.13;;
41532;SDS011;27262;-35.248;149.138;2024-02-15T06:01:50;4.05;;;0.82;;
41532;SDS011;27262;-35.248;149.138;2024-02-15T06:04:21;7.35;;;1.00;;
41532;SDS011;27262;-35.248;149.138;2024-02-15T06:06:52;4.40;;;1.10;;
41532;SDS011;27262;-35.248;149.138;2024-02-15T06:09:27;4.57;;;0.82;;
41532;SDS011;27262;-35.248;149.138;2024-02-15T06:12:00;2.90;;;1.10;;
41532;SDS011;27262;-35.248;149.138;2024-02-15T06:14:32;3.40;;;0.90;;
41532;SDS011;27262;-35.248;149.138;2024-02-15T06:17:03;3.03;;;0.90;;
41532;SDS011;27262;-35.248;149.138;2024-02-15T06:19:33;3.80;;;0.93;;
41532;SDS011;27262;-35.248;149.138;2024-02-15T06:22:03;4.20;;;0.88;;
41532;SDS011;27262;-35.248;149.138;2024-02-15T06:24:34;1.92;;;0.60;;
41532;SDS011;27262;-35.248;149.138;2024-02-15T06:27:04;2.47;;;0.90;;
41532;SDS011;27262;-35.248;149.138;2024-02-15T06:29:35;1.60;;;0.82;;
41532;SDS011;27262;-35.248;149.138;2024-02-15T06:32:23;4.60;;;0.88;;
41532;SDS011;27262;-35.248;149.138;2024-02-15T06:35:11;6.75;;;1.15;;
41532;SDS011;27262;-35.248;149.138;2024-02-15T06:38:03;3.50;;;0.85;;
41532;SDS011;27262;-35.248;149.138;2024-02-15T06:40:51;4.57;;;1.13;;
41532;SDS011;27262;-35.248;149.138;2024-02-15T06:43:22;2.08;;;0.90;;
41532;SDS011;27262;-35.248;149.138;2024-02-15T06:45:53;5.28;;;1.13;;
41532;SDS011;27262;-35.248;149.138;2024-02-15T06:48:23;2.88;;;0.88;;
41532;SDS011;27262;-35.248;149.138;2024-02-15T06:50:55;3.13;;;0.90;;
41532;SDS011;27262;-35.248;149.138;2024-02-15T06:53:26;2.78;;;1.00;;
41532;SDS011;27262;-35.248;149.138;2024-02-15T06:55:58;3.45;;;0.77;;
41532;SDS011;27262;-35.248;149.138;2024-02-15T06:58:28;1.73;;;0.93;;
41532;SDS011;27262;-35.248;149.138;2024-02-15T07:00:59;4.15;;;0.75;;
41532;SDS011;27262;-35.248;149.138;2024-02-15T07:03:29;2.33;;;1.05;;
41532;SDS011;27262;-35.248;149.138;2024-02-15T07:06:01;1.83;;;0.80;;
41532;SDS011;27262;-35.248;149.138;2024-02-15T07:08:31;3.15;;;0.80;;
41532;SDS011;27262;-35.248;149.138;2024-02-15T07:11:02;5.35;;;1.10;;
41532;SDS011;27262;-35.248;149.138;2024-02-15T07:13:33;2.47;;;0.88;;
41532;SDS011;27262;-35.248;149.138;2024-02-15T07:16:09;3.17;;;0.82;;
41532;SDS011;27262;-35.248;149.138;2024-02-15T07:18:40;4.55;;;0.80;;
41532;SDS011;27262;-35.248;149.138;2024-02-15T07:21:12;4.93;;;0.80;;
41532;SDS011;27262;-35.248;149.138;2024-02-15T07:23:45;2.35;;;1.10;;
41532;SDS011;27262;-35.248;149.138;2024-02-15T07:26:15;2.60;;;1.00;;
41532;SDS011;27262;-35.248;149.138;2024-02-15T07:28:48;2.22;;;0.93;;
41532;SDS011;27262;-35.248;149.138;2024-02-15T07:31:21;1.70;;;0.80;;
41532;SDS011;27262;-35.248;149.138;2024-02-15T07:33:52;2.72;;;0.60;;
41532;SDS011;27262;-35.248;149.138;2024-02-15T07:36:23;2.35;;;0.80;;
41532;SDS011;27262;-35.248;149.138;2024-02-15T07:38:54;8.88;;;0.90;;
41532;SDS011;27262;-35.248;149.138;2024-02-15T07:41:29;3.50;;;1.13;;
41532;SDS011;27262;-35.248;149.138;2024-02-15T07:44:01;1.40;;;0.63;;
41532;SDS011;27262;-35.248;149.138;2024-02-15T07:46:32;3.58;;;0.90;;
41532;SDS011;27262;-35.248;149.138;2024-02-15T07:49:03;3.08;;;0.68;;
41532;SDS011;27262;-35.248;149.138;2024-02-15T07:51:34;3.92;;;1.00;;
41532;SDS011;27262;-35.248;149.138;2024-02-15T07:54:05;3.97;;;0.85;;
41532;SDS011;27262;-35.248;149.138;2024-02-15T07:56:35;3.58;;;0.90;;
41532;SDS011;27262;-35.248;149.138;2024-02-15T07:59:06;1.33;;;0.80;;
41532;SDS011;27262;-35.248;149.138;2024-02-15T08:01:36;3.40;;;1.02;;
41532;SDS011;27262;-35.248;149.138;2024-02-15T08:04:10;8.07;;;1.00;;
41532;SDS011;27262;-35.248;149.138;2024-02-15T08:06:43;3.58;;;1.08;;
41532;SDS011;27262;-35.248;149.138;2024-02-15T08:09:15;2.10;;;0.90;;
41532;SDS011;27262;-35.248;149.138;2024-02-15T08:11:46;2.40;;;1.05;;
41532;SDS011;27262;-35.248;149.138;2024-02-15T08:14:19;2.47;;;0.80;;
41532;SDS011;27262;-35.248;149.138;2024-02-15T08:16:49;1.80;;;0.90;;
41532;SDS011;27262;-35.248;149.138;2024-02-15T08:19:20;2.55;;;1.00;;
41532;SDS011;27262;-35.248;149.138;2024-02-15T08:21:51;1.83;;;0.70;;
41532;SDS011;27262;-35.248;149.138;2024-02-15T08:24:22;2.22;;;0.95;;
41532;SDS011;27262;-35.248;149.138;2024-02-15T08:26:53;2.97;;;1.17;;
41532;SDS011;27262;-35.248;149.138;2024-02-15T08:29:25;2.90;;;0.98;;
41532;SDS011;27262;-35.248;149.138;2024-02-15T08:31:55;1.30;;;0.85;;
41532;SDS011;27262;-35.248;149.138;2024-02-15T08:34:27;2.47;;;0.90;;
41532;SDS011;27262;-35.248;149.138;2024-02-15T08:36:57;3.15;;;1.30;;
41532;SDS011;27262;-35.248;149.138;2024-02-15T08:39:28;3.67;;;1.15;;
41532;SDS011;27262;-35.248;149.138;2024-02-15T08:41:58;2.28;;;1.00;;
41532;SDS011;27262;-35.248;149.138;2024-02-15T08:44:28;2.05;;;0.90;;
41532;SDS011;27262;-35.248;149.138;2024-02-15T08:46:59;1.45;;;0.80;;
41532;SDS011;27262;-35.248;149.138;2024-02-15T08:49:29;3.63;;;0.90;;
41532;SDS011;27262;-35.248;149.138;2024-02-15T08:52:00;2.08;;;1.00;;
41532;SDS011;27262;-35.248;149.138;2024-02-15T08:54:32;3.35;;;0.93;;
41532;SDS011;27262;-35.248;149.138;2024-02-15T08:57:03;2.15;;;1.00;;
41532;SDS011;27262;-35.248;149.138;2024-02-15T08:59:34;3.10;;;1.10;;
41532;SDS011;27262;-35.248;149.138;2024-02-15T09:02:04;4.32;;;1.40;;
41532;SDS011;27262;-35.248;149.138;2024-02-15T09:04:35;1.02;;;0.80;;
41532;SDS011;27262;-35.248;149.138;2024-02-15T09:07:07;2.78;;;1.00;;
41532;SDS011;27262;-35.248;149.138;2024-02-15T09:09:38;4.07;;;1.10;;
41532;SDS011;27262;-35.248;149.138;2024-02-15T09:12:09;1.40;;;1.08;;
41532;SDS011;27262;-35.248;149.138;2024-02-15T09:14:39;2.97;;;0.88;;
41532;SDS011;27262;-35.248;149.138;2024-02-15T09:17:09;2.67;;;0.93;;
41532;SDS011;27262;-35.248;149.138;2024-02-15T09:19:39;1.58;;;1.17;;
41532;SDS011;27262;-35.248;149.138;2024-02-15T09:22:10;2.13;;;1.17;;
41532;SDS011;27262;-35.248;149.138;2024-02-15T09:24:40;1.75;;;1.10;;
41532;SDS011;27262;-35.248;149.138;2024-02-15T09:27:10;3.17;;;1.30;;
41532;SDS011;27262;-35.248;149.138;2024-02-15T09:29:41;2.35;;;1.00;;
41532;SDS011;27262;-35.248;149.138;2024-02-15T09:32:11;3.05;;;1.00;;
41532;SDS011;27262;-35.248;149.138;2024-02-15T09:34:42;3.33;;;1.00;;
41532;SDS011;27262;-35.248;149.138;2024-02-15T09:37:12;2.90;;;1.20;;
41532;SDS011;27262;-35.248;149.138;2024-02-15T09:39:42;1.70;;;0.80;;
41532;SDS011;27262;-35.248;149.138;2024-02-15T09:42:13;2.88;;;1.40;;
41532;SDS011;27262;-35.248;149.138;2024-02-15T09:44:43;1.45;;;0.98;;
41532;SDS011;27262;-35.248;149.138;2024-02-15T09:47:15;1.95;;;1.20;;
41532;SDS011;27262;-35.248;149.138;2024-02-15T09:49:47;1.58;;;1.30;;
41532;SDS011;27262;-35.248;149.138;2024-02-15T09:52:19;2.13;;;1.15;;
41532;SDS011;27262;-35.248;149.138;2024-02-15T09:54:49;1.38;;;1.00;;
41532;SDS011;27262;-35.248;149.138;2024-02-15T09:57:20;1.75;;;1.08;;
41532;SDS011;27262;-35.248;149.138;2024-02-15T09:59:51;2.05;;;0.95;;
41532;SDS011;27262;-35.248;149.138;2024-02-15T10:02:21;3.75;;;1.10;;
41532;SDS011;27262;-35.248;149.138;2024-02-15T10:04:54;3.78;;;1.48;;
41532;SDS011;27262;-35.248;149.138;2024-02-15T10:07:27;0.95;;;0.90;;
41532;SDS011;27262;-35.248;149.138;2024-02-15T10:09:58;2.00;;;1.10;;
41532;SDS011;27262;-35.248;149.138;2024-02-15T10:12:51;1.27;;;1.00;;
41532;SDS011;27262;-35.248;149.138;2024-02-15T10:15:35;2.88;;;1.13;;
41532;SDS011;27262;-35.248;149.138;2024-02-15T10:18:07;1.98;;;1.00;;
41532;SDS011;27262;-35.248;149.138;2024-02-15T10:20:41;1.98;;;1.10;;
41532;SDS011;27262;-35.248;149.138;2024-02-15T10:23:14;3.03;;;1.05;;
41532;SDS011;27262;-35.248;149.138;2024-02-15T10:25:47;2.08;;;1.05;;
41532;SDS011;27262;-35.248;149.138;2024-02-15T10:28:20;1.40;;;1.00;;
41532;SDS011;27262;-35.248;149.138;2024-02-15T10:30:57;2.15;;;1.10;;
41532;SDS011;27262;-35.248;149.138;2024-02-15T10:33:41;3.28;;;1.15;;
41532;SDS011;27262;-35.248;149.138;2024-02-15T10:36:11;1.80;;;1.27;;
41532;SDS011;27262;-35.248;149.138;2024-02-15T10:38:42;2.13;;;1.00;;
41532;SDS011;27262;-35.248;149.138;2024-02-15T10:41:13;3.42;;;1.20;;
41532;SDS011;27262;-35.248;149.138;2024-02-15T10:43:44;2.67;;;1.20;;
41532;SDS011;27262;-35.248;149.138;2024-02-15T10:46:16;1.98;;;1.10;;
41532;SDS011;27262;-35.248;149.138;2024-02-15T10:48:47;2.20;;;1.25;;
41532;SDS011;27262;-35.248;149.138;2024-02-15T10:51:18;1.92;;;1.20;;
41532;SDS011;27262;-35.248;149.138;2024-02-15T10:53:52;1.55;;;1.10;;
41532;SDS011;27262;-35.248;149.138;2024-02-15T10:56:36;2.20;;;1.02;;
41532;SDS011;27262;-35.248;149.138;2024-02-15T10:59:19;1.38;;;0.90;;
41532;SDS011;27262;-35.248;149.138;2024-02-15T11:01:59;1.20;;;1.08;;
41532;SDS011;27262;-35.248;149.138;2024-02-15T11:04:34;1.85;;;1.00;;
41532;SDS011;27262;-35.248;149.138;2024-02-15T11:07:05;1.95;;;1.13;;
41532;SDS011;27262;-35.248;149.138;2024-02-15T11:09:36;1.48;;;1.02;;
41532;SDS011;27262;-35.248;149.138;2024-02-15T11:12:08;1.25;;;1.10;;
41532;SDS011;27262;-35.248;149.138;2024-02-15T11:14:42;1.73;;;1.17;;
41532;SDS011;27262;-35.248;149.138;2024-02-15T11:17:45;1.73;;;1.08;;
41532;SDS011;27262;-35.248;149.138;2024-02-15T11:23:04;2.60;;;1.10;;
41532;SDS011;27262;-35.248;149.138;2024-02-15T11:25:35;1.92;;;1.00;;
41532;SDS011;27262;-35.248;149.138;2024-02-15T11:30:56;2.25;;;1.10;;
41532;SDS011;27262;-35.248;149.138;2024-02-15T11:33:30;1.20;;;0.90;;
41532;SDS011;27262;-35.248;149.138;2024-02-15T11:36:08;1.52;;;1.20;;
41532;SDS011;27262;-35.248;149.138;2024-02-15T11:38:42;1.20;;;0.85;;
41532;SDS011;27262;-35.248;149.138;2024-02-15T11:41:18;2.60;;;1.20;;
41532;SDS011;27262;-35.248;149.138;2024-02-15T11:43:51;2.90;;;1.10;;
41532;SDS011;27262;-35.248;149.138;2024-02-15T11:46:29;1.50;;;1.00;;
41532;SDS011;27262;-35.248;149.138;2024-02-15T11:49:01;1.45;;;0.90;;
41532;SDS011;27262;-35.248;149.138;2024-02-15T11:51:33;1.15;;;0.90;;
41532;SDS011;27262;-35.248;149.138;2024-02-15T11:54:15;2.25;;;1.00;;
41532;SDS011;27262;-35.248;149.138;2024-02-15T11:56:50;1.45;;;0.85;;
41532;SDS011;27262;-35.248;149.138;2024-02-15T11:59:38;1.65;;;1.10;;
41532;SDS011;27262;-35.248;149.138;2024-02-15T12:02:31;3.38;;;0.98;;
41532;SDS011;27262;-35.248;149.138;2024-02-15T12:05:24;3.03;;;1.17;;
41532;SDS011;27262;-35.248;149.138;2024-02-15T12:08:13;2.25;;;1.15;;
41532;SDS011;27262;-35.248;149.138;2024-02-15T12:11:01;1.58;;;0.88;;
41532;SDS011;27262;-35.248;149.138;2024-02-15T12:13:52;1.48;;;1.00;;
41532;SDS011;27262;-35.248;149.138;2024-02-15T12:16:41;2.08;;;1.27;;
41532;SDS011;27262;-35.248;149.138;2024-02-15T12:19:29;1.23;;;0.98;;
41532;SDS011;27262;-35.248;149.138;2024-02-15T12:21:59;1.60;;;1.00;;
41532;SDS011;27262;-35.248;149.138;2024-02-15T12:24:32;1.10;;;1.00;;
41532;SDS011;27262;-35.248;149.138;2024-02-15T12:27:02;1.25;;;1.10;;
41532;SDS011;27262;-35.248;149.138;2024-02-15T12:29:34;1.70;;;1.10;;
41532;SDS011;27262;-35.248;149.138;2024-02-15T12:32:04;1.65;;;1.27;;
41532;SDS011;27262;-35.248;149.138;2024-02-15T12:34:34;1.55;;;1.23;;
41532;SDS011;27262;-35.248;149.138;2024-02-15T12:37:11;1.42;;;1.10;;
41532;SDS011;27262;-35.248;149.138;2024-02-15T12:39:42;1.77;;;0.95;;
41532;SDS011;27262;-35.248;149.138;2024-02-15T12:42:12;1.40;;;1.00;;
41532;SDS011;27262;-35.248;149.138;2024-02-15T12:44:43;1.30;;;0.77;;
41532;SDS011;27262;-35.248;149.138;2024-02-15T12:47:21;1.42;;;1.20;;
41532;SDS011;27262;-35.248;149.138;2024-02-15T12:49:53;2.00;;;0.82;;
41532;SDS011;27262;-35.248;149.138;2024-02-15T12:52:36;1.73;;;1.10;;
41532;SDS011;27262;-35.248;149.138;2024-02-15T12:55:14;1.35;;;0.90;;
41532;SDS011;27262;-35.248;149.138;2024-02-15T12:57:55;2.72;;;0.93;;
41532;SDS011;27262;-35.248;149.138;2024-02-15T13:00:26;1.67;;;0.90;;
41532;SDS011;27262;-35.248;149.138;2024-02-15T13:03:04;1.30;;;1.00;;
41532;SDS011;27262;-35.248;149.138;2024-02-15T13:05:39;2.75;;;1.10;;
41532;SDS011;27262;-35.248;149.138;2024-02-15T13:08:10;1.00;;;0.90;;
41532;SDS011;27262;-35.248;149.138;2024-02-15T13:10:52;1.38;;;0.95;;
41532;SDS011;27262;-35.248;149.138;2024-02-15T13:13:22;1.00;;;0.77;;
41532;SDS011;27262;-35.248;149.138;2024-02-15T13:15:53;0.80;;;0.80;;
41532;SDS011;27262;-35.248;149.138;2024-02-15T13:18:23;1.33;;;0.90;;
41532;SDS011;27262;-35.248;149.138;2024-02-15T13:20:54;1.00;;;0.85;;
41532;SDS011;27262;-35.248;149.138;2024-02-15T13:23:27;3.83;;;0.90;;
41532;SDS011;27262;-35.248;149.138;2024-02-15T13:25:57;0.80;;;0.80;;
41532;SDS011;27262;-35.248;149.138;2024-02-15T13:28:32;1.10;;;1.00;;
41532;SDS011;27262;-35.248;149.138;2024-02-15T13:31:03;1.05;;;0.85;;
41532;SDS011;27262;-35.248;149.138;2024-02-15T13:33:33;0.80;;;0.70;;
41532;SDS011;27262;-35.248;149.138;2024-02-15T13:36:04;1.67;;;0.90;;
41532;SDS011;27262;-35.248;149.138;2024-02-15T13:38:39;1.05;;;0.88;;
41532;SDS011;27262;-35.248;149.138;2024-02-15T13:41:09;1.48;;;0.88;;
41532;SDS011;27262;-35.248;149.138;2024-02-15T13:43:40;1.15;;;0.90;;
41532;SDS011;27262;-35.248;149.138;2024-02-15T13:46:10;0.90;;;0.77;;
41532;SDS011;27262;-35.248;149.138;2024-02-15T13:48:40;2.10;;;0.85;;
41532;SDS011;27262;-35.248;149.138;2024-02-15T13:51:21;0.88;;;0.75;;
41532;SDS011;27262;-35.248;149.138;2024-02-15T13:54:18;0.60;;;0.60;;
41532;SDS011;27262;-35.248;149.138;2024-02-15T13:56:51;1.10;;;0.80;;
41532;SDS011;27262;-35.248;149.138;2024-02-15T13:59:22;0.65;;;0.65;;
41532;SDS011;27262;-35.248;149.138;2024-02-15T14:01:52;0.93;;;0.60;;
41532;SDS011;27262;-35.248;149.138;2024-02-15T14:04:22;0.80;;;0.70;;
41532;SDS011;27262;-35.248;149.138;2024-02-15T14:06:53;1.25;;;0.70;;
41532;SDS011;27262;-35.248;149.138;2024-02-15T14:09:25;1.00;;;0.80;;
41532;SDS011;27262;-35.248;149.138;2024-02-15T14:11:56;0.75;;;0.75;;
41532;SDS011;27262;-35.248;149.138;2024-02-15T14:14:26;0.90;;;0.75;;
41532;SDS011;27262;-35.248;149.138;2024-02-15T14:16:57;1.10;;;1.00;;
41532;SDS011;27262;-35.248;149.138;2024-02-15T14:19:27;0.90;;;0.60;;
41532;SDS011;27262;-35.248;149.138;2024-02-15T14:21:57;1.02;;;0.85;;
41532;SDS011;27262;-35.248;149.138;2024-02-15T14:24:28;1.13;;;0.82;;
41532;SDS011;27262;-35.248;149.138;2024-02-15T14:26:58;1.20;;;0.75;;
41532;SDS011;27262;-35.248;149.138;2024-02-15T14:29:28;1.02;;;0.65;;
41532;SDS011;27262;-35.248;149.138;2024-02-15T14:32:01;1.73;;;0.90;;
41532;SDS011;27262;-35.248;149.138;2024-02-15T14:34:50;1.10;;;0.70;;
41532;SDS011;27262;-35.248;149.138;2024-02-15T14:37:21;1.90;;;0.60;;
41532;SDS011;27262;-35.248;149.138;2024-02-15T14:39:53;0.90;;;0.50;;
41532;SDS011;27262;-35.248;149.138;2024-02-15T14:42:30;1.33;;;0.70;;
41532;SDS011;27262;-35.248;149.138;2024-02-15T14:45:02;1.00;;;0.60;;